createdAt,value
2023-09-12T00:00:14.259Z,164053.31
2023-09-12T00:03:23.215Z,164040.28
2023-09-12T00:06:27.229Z,164037.59
2023-09-12T00:09:31.428Z,164027.09
2023-09-12T00:12:35.395Z,164021.81
2023-09-12T00:15:40.097Z,164016.56
2023-09-12T00:18:44.625Z,164004.75
2023-09-12T00:21:48.566Z,163995.53
2023-09-12T00:24:52.638Z,163988.97
2023-09-12T00:27:56.678Z,163988.97
2023-09-12T00:31:00.581Z,163979.75
2023-09-12T00:34:04.436Z,163971.91
2023-09-12T00:37:08.278Z,163965.38
2023-09-12T00:40:12.237Z,163958.75
2023-09-12T00:43:17.575Z,163964.03
2023-09-12T00:46:24.035Z,163950.88
2023-09-12T00:49:29.273Z,163940.34
2023-09-12T00:52:34.480Z,163946.94
2023-09-12T00:55:45.217Z,163932.50
2023-09-12T00:58:52.230Z,163916.72
2023-09-12T01:01:56.499Z,163910.19
2023-09-12T01:05:00.448Z,163897.03
2023-09-12T01:08:04.835Z,163885.22
2023-09-12T01:11:09.739Z,163883.88
2023-09-12T01:14:13.976Z,163887.84
2023-09-12T01:17:18.450Z,163887.84
2023-09-12T01:20:28.669Z,163876.03
2023-09-12T01:24:14.403Z,163865.47
2023-09-12T01:27:36.100Z,163869.44
2023-09-12T01:30:43.200Z,163860.25
2023-09-12T01:33:47.230Z,163856.34
2023-09-12T01:36:51.096Z,163856.34
2023-09-12T01:39:55.168Z,163853.66
2023-09-12T01:43:02.543Z,163837.88
2023-09-12T01:46:06.993Z,163839.22
2023-09-12T01:49:12.835Z,163831.38
2023-09-12T01:52:17.813Z,163827.41
2023-09-12T01:55:23.345Z,163834.00
2023-09-12T01:58:27.694Z,163830.03
2023-09-12T02:01:31.737Z,163843.19
2023-09-12T02:04:35.883Z,163828.69
2023-09-12T02:07:42.359Z,163826.06
2023-09-12T02:10:46.472Z,163824.75
2023-09-12T02:13:50.226Z,163828.69
2023-09-12T02:16:54.073Z,163824.75
2023-09-12T02:19:58.129Z,163820.84
2023-09-12T02:23:02.493Z,163812.91
2023-09-12T02:26:06.683Z,163793.25
2023-09-12T02:29:10.911Z,163795.88
2023-09-12T02:32:15.178Z,163802.44
2023-09-12T02:35:19.306Z,163788.00
2023-09-12T02:38:23.691Z,163774.84
2023-09-12T02:41:28.078Z,163774.84
2023-09-12T02:44:32.173Z,163769.56
2023-09-12T02:47:36.213Z,163765.66
2023-09-12T02:50:40.150Z,163756.53
2023-09-12T02:53:44.457Z,163747.28
2023-09-12T02:56:48.657Z,163742.03
2023-09-12T02:59:52.914Z,163724.94
2023-09-12T03:02:56.824Z,163717.06
2023-09-12T03:06:03.906Z,163711.81
2023-09-12T03:09:08.108Z,163710.53
2023-09-12T03:12:12.447Z,163702.63
2023-09-12T03:15:16.410Z,163690.78
2023-09-12T03:18:20.770Z,163680.28
2023-09-12T03:21:24.996Z,163676.38
2023-09-12T03:24:30.094Z,163678.97
2023-09-12T03:27:34.410Z,163654.03
2023-09-12T03:30:39.512Z,163659.28
2023-09-12T03:33:49.050Z,163643.56
2023-09-12T03:36:53.056Z,163646.16
2023-09-12T03:39:56.744Z,163654.03
2023-09-12T03:43:00.898Z,163625.13
2023-09-12T03:46:05.294Z,163623.84
2023-09-12T03:49:09.029Z,163622.53
2023-09-12T03:52:12.886Z,163614.66
2023-09-12T03:55:17.747Z,163614.66
2023-09-12T03:58:21.842Z,163612.00
2023-09-12T04:01:27.328Z,163606.81
2023-09-12T04:04:32.258Z,163605.47
2023-09-12T04:07:36.435Z,163601.53
2023-09-12T04:10:40.440Z,163602.84
2023-09-12T04:13:44.966Z,163601.53
2023-09-12T04:16:49.428Z,163606.81
2023-09-12T04:19:53.450Z,163601.53
2023-09-12T04:22:57.568Z,163597.59
2023-09-12T04:26:04.305Z,163587.03
2023-09-12T04:29:08.504Z,163598.91
2023-09-12T04:32:13.112Z,163602.84
2023-09-12T04:35:20.314Z,163593.66
2023-09-12T04:38:26.183Z,163587.03
2023-09-12T04:41:30.921Z,163610.72
2023-09-12T04:44:37.140Z,163591.00
2023-09-12T04:47:41.313Z,163585.81
2023-09-12T04:50:45.489Z,163581.84
2023-09-12T04:53:52.754Z,163581.84
2023-09-12T04:56:56.737Z,163580.50
2023-09-12T05:00:00.493Z,163566.03
2023-09-12T05:03:05.147Z,163567.38
2023-09-12T05:06:09.372Z,163566.03
2023-09-12T05:09:13.365Z,163564.75
2023-09-12T05:12:17.806Z,163569.97
2023-09-12T05:15:22.033Z,163556.91
2023-09-12T05:18:26.353Z,163567.38
2023-09-12T05:21:30.513Z,163575.22
2023-09-12T05:24:34.561Z,163579.19
2023-09-12T05:27:38.771Z,163588.38
2023-09-12T05:30:44.090Z,163580.50
2023-09-12T05:33:48.350Z,163594.94
2023-09-12T05:36:52.379Z,163593.66
2023-09-12T05:39:56.536Z,163591.00
2023-09-12T05:43:00.874Z,163602.84
2023-09-12T05:46:05.035Z,163625.13
2023-09-12T05:49:09.189Z,163633.00
2023-09-12T05:52:13.148Z,163644.81
2023-09-12T05:55:18.661Z,163643.56
2023-09-12T05:58:23.076Z,163638.28
2023-09-12T06:01:27.279Z,163669.75
2023-09-12T06:04:31.461Z,163669.75
2023-09-12T06:07:36.301Z,163671.09
2023-09-12T06:10:40.481Z,163686.88
2023-09-12T06:13:44.890Z,163721.03
2023-09-12T06:16:49.272Z,163753.84
2023-09-12T06:19:55.145Z,163776.19
2023-09-12T06:23:00.577Z,163782.72
2023-09-12T06:26:04.649Z,163805.06
2023-09-12T06:29:09.006Z,163844.53
2023-09-12T06:32:13.393Z,163897.03
2023-09-12T06:35:17.848Z,163940.34
2023-09-12T06:38:23.801Z,163962.72
2023-09-12T06:41:28.293Z,163966.63
2023-09-12T06:44:32.650Z,164000.78
2023-09-12T06:47:36.662Z,164028.38
2023-09-12T06:50:40.715Z,164074.34
2023-09-12T06:53:45.114Z,164102.00
2023-09-12T06:56:49.639Z,164113.84
2023-09-12T06:59:53.715Z,164147.97
2023-09-12T07:02:58.444Z,164147.97
2023-09-12T07:06:04.119Z,164169.00
2023-09-12T07:09:09.804Z,164205.81
2023-09-12T07:12:14.003Z,164238.63
2023-09-12T07:15:18.338Z,164266.22
2023-09-12T07:18:22.868Z,164284.66
2023-09-12T07:21:27.309Z,164325.38
2023-09-12T07:24:31.888Z,164384.53
2023-09-12T07:27:36.086Z,164410.81
2023-09-12T07:30:40.330Z,164426.63
2023-09-12T07:33:44.524Z,164462.06
2023-09-12T07:36:49.118Z,164466.03
2023-09-12T07:39:53.530Z,164475.22
2023-09-12T07:42:57.622Z,164534.41
2023-09-12T07:46:01.867Z,164604.09
2023-09-12T07:49:05.873Z,164633.00
2023-09-12T07:52:10.280Z,164635.63
2023-09-12T07:55:14.178Z,164663.28
2023-09-12T07:58:22.747Z,164747.44
2023-09-12T08:01:28.414Z,164802.69
2023-09-12T08:04:32.642Z,164897.38
2023-09-12T08:07:37.289Z,164957.84
2023-09-12T08:10:41.835Z,164898.69
2023-09-12T08:13:50.780Z,164872.38
2023-09-12T08:16:55.235Z,164850.00
2023-09-12T08:19:59.530Z,164843.41
2023-09-12T08:23:03.891Z,164840.78
2023-09-12T08:26:08.825Z,164850.00
2023-09-12T08:29:12.791Z,164874.97
2023-09-12T08:32:17.055Z,164892.09
2023-09-12T08:35:21.039Z,164899.97
2023-09-12T08:38:24.842Z,164917.06
2023-09-12T08:41:28.894Z,164946.00
2023-09-12T08:44:33.122Z,164946.00
2023-09-12T08:47:40.140Z,164964.44
2023-09-12T08:50:47.548Z,164986.78
2023-09-12T08:53:52.467Z,165022.34
2023-09-12T08:56:56.991Z,165077.63
2023-09-12T09:00:11.480Z,165121.00
2023-09-12T09:03:15.758Z,165126.25
2023-09-12T09:06:21.948Z,165151.25
2023-09-12T09:09:28.766Z,165163.09
2023-09-12T09:12:37.040Z,165192.06
2023-09-12T09:15:43.265Z,165219.69
2023-09-12T09:18:59.300Z,165242.03
2023-09-12T09:22:07.447Z,165267.03
2023-09-12T09:25:13.495Z,165296.00
2023-09-12T09:28:19.567Z,165292.03
2023-09-12T09:31:24.070Z,165288.13
2023-09-12T09:34:30.440Z,165321.00
2023-09-12T09:37:34.637Z,165359.16
2023-09-12T09:40:38.808Z,165363.13
2023-09-12T09:43:44.764Z,165351.25
2023-09-12T09:46:55.628Z,165326.25
2023-09-12T09:50:00.564Z,165322.34
2023-09-12T09:53:06.494Z,165299.91
2023-09-12T09:56:16.449Z,165302.59
2023-09-12T09:59:28.111Z,165297.34
2023-09-12T10:02:33.019Z,165306.53
2023-09-12T10:05:38.635Z,165326.25
2023-09-12T10:08:44.636Z,165336.81
2023-09-12T10:11:49.329Z,165367.03
2023-09-12T10:14:53.736Z,165376.25
2023-09-12T10:18:00.004Z,165368.38
2023-09-12T10:21:12.853Z,165394.72
2023-09-12T10:24:17.401Z,165399.97
2023-09-12T10:27:22.948Z,165435.50
2023-09-12T10:30:27.834Z,165398.69
2023-09-12T10:33:32.680Z,165422.34
2023-09-12T10:36:41.955Z,165447.34
2023-09-12T10:39:46.782Z,165452.63
2023-09-12T10:42:52.326Z,165446.00
2023-09-12T10:45:57.799Z,165471.03
2023-09-12T10:49:01.911Z,165536.88
2023-09-12T10:52:06.716Z,165511.84
2023-09-12T10:55:18.391Z,165526.34
2023-09-12T10:58:22.721Z,165532.94
2023-09-12T11:01:27.543Z,165542.13
2023-09-12T11:04:34.629Z,165539.50
2023-09-12T11:07:41.791Z,165544.75
2023-09-12T11:10:46.085Z,165538.16
2023-09-12T11:14:07.008Z,165564.50
2023-09-12T11:17:11.809Z,165597.41
2023-09-12T11:20:18.192Z,165606.66
2023-09-12T11:23:22.782Z,165615.88
2023-09-12T11:26:27.036Z,165601.38
2023-09-12T11:29:39.590Z,165592.16
2023-09-12T11:32:47.142Z,165622.44
2023-09-12T11:35:54.045Z,165639.53
2023-09-12T11:39:03.448Z,165665.91
2023-09-12T11:42:13.975Z,165667.19
2023-09-12T11:45:20.508Z,165717.19
2023-09-12T11:48:24.788Z,165733.06
2023-09-12T11:51:29.296Z,165715.94
2023-09-12T11:54:33.545Z,165709.28
2023-09-12T11:57:37.569Z,165739.63
2023-09-12T12:00:56.452Z,165792.25
2023-09-12T12:04:00.406Z,165822.53
2023-09-12T12:07:05.643Z,165783.06
2023-09-12T12:10:09.562Z,165738.28
2023-09-12T12:13:18.163Z,165700.09
2023-09-12T12:16:23.942Z,165676.38
2023-09-12T12:19:29.595Z,165660.59
2023-09-12T12:22:33.774Z,165717.19
2023-09-12T12:25:38.084Z,165675.09
2023-09-12T12:28:42.686Z,165676.38
2023-09-12T12:31:47.192Z,165644.81
2023-09-12T12:35:40.219Z,165663.22
2023-09-12T12:38:16.326Z,165673.78
2023-09-12T12:41:35.626Z,165673.78
2023-09-12T12:44:45.500Z,165648.78
2023-09-12T12:47:59.027Z,165740.97
2023-09-12T12:51:17.994Z,165815.97
2023-09-12T12:54:23.546Z,165871.25
2023-09-12T12:57:28.177Z,165939.78
2023-09-12T13:00:33.021Z,165885.78
2023-09-12T13:03:37.178Z,165805.44
2023-09-12T13:06:42.139Z,165764.63
2023-09-12T13:09:49.161Z,165750.09
2023-09-12T13:12:53.423Z,165784.34
2023-09-12T13:15:57.806Z,165829.19
2023-09-12T13:19:02.350Z,165859.44
2023-09-12T13:22:06.630Z,165800.13
2023-09-12T13:25:11.454Z,165738.28
2023-09-12T13:28:15.649Z,165710.63
2023-09-12T13:31:19.952Z,165650.06
2023-09-12T13:34:24.110Z,165661.94
2023-09-12T13:37:28.634Z,165686.94
2023-09-12T13:40:33.055Z,165698.81
2023-09-12T13:43:37.365Z,165729.09
2023-09-12T13:46:45.237Z,165760.66
2023-09-12T13:49:50.264Z,165739.63
2023-09-12T13:52:57.062Z,165752.78
2023-09-12T13:56:27.756Z,165796.22
2023-09-12T13:59:34.401Z,165780.44
2023-09-12T14:02:42.670Z,165821.25
2023-09-12T14:05:46.941Z,165920.00
2023-09-12T14:08:53.260Z,165916.09
2023-09-12T14:11:57.872Z,165888.38
2023-09-12T14:15:08.737Z,165860.75
2023-09-12T14:18:13.796Z,165831.78
2023-09-12T14:21:19.584Z,165818.63
2023-09-12T14:24:24.336Z,165802.81
2023-09-12T14:27:30.776Z,165792.25
2023-09-12T14:30:37.133Z,165787.03
2023-09-12T14:33:41.883Z,165787.03
2023-09-12T14:36:49.174Z,165768.56
2023-09-12T14:39:53.714Z,165764.63
2023-09-12T14:42:57.919Z,165746.19
2023-09-12T14:46:02.414Z,165744.88
2023-09-12T14:49:06.920Z,165734.31
2023-09-12T14:52:20.126Z,165725.06
2023-09-12T14:55:28.263Z,165735.66
2023-09-12T14:58:32.471Z,165769.91
2023-09-12T15:01:38.455Z,165752.78
2023-09-12T15:04:42.770Z,165734.31
2023-09-12T15:07:47.105Z,165743.53
2023-09-12T15:10:51.154Z,165735.66
2023-09-12T15:13:55.289Z,165734.31
2023-09-12T15:17:01.264Z,165731.72
2023-09-12T15:20:09.001Z,165742.19
2023-09-12T15:23:13.146Z,165735.66
2023-09-12T15:26:17.219Z,165733.06
2023-09-12T15:29:21.837Z,165715.94
2023-09-12T15:32:25.926Z,165708.06
2023-09-12T15:35:29.945Z,165705.38
2023-09-12T15:38:33.892Z,165698.81
2023-09-12T15:41:38.210Z,165685.59
2023-09-12T15:44:58.131Z,165675.09
2023-09-12T15:48:05.548Z,165689.59
2023-09-12T15:51:09.908Z,165673.78
2023-09-12T15:54:13.799Z,165664.56
2023-09-12T15:57:17.904Z,165661.94
2023-09-12T16:00:22.066Z,165650.06
2023-09-12T16:03:26.756Z,165642.19
2023-09-12T16:06:32.288Z,165634.28
2023-09-12T16:09:36.641Z,165621.09
2023-09-12T16:12:41.419Z,165628.97
2023-09-12T16:15:45.495Z,165618.50
2023-09-12T16:18:49.848Z,165607.97
2023-09-12T16:21:54.021Z,165600.03
2023-09-12T16:24:58.585Z,165606.66
2023-09-12T16:28:02.933Z,165609.28
2023-09-12T16:31:07.279Z,165581.63
2023-09-12T16:34:11.451Z,165557.97
2023-09-12T16:37:15.756Z,165539.50
2023-09-12T16:40:20.168Z,165518.47
2023-09-12T16:43:24.590Z,165519.75
2023-09-12T16:46:28.962Z,165518.47
2023-09-12T16:49:34.598Z,165513.16
2023-09-12T16:52:38.916Z,165492.09
2023-09-12T16:55:43.776Z,165465.81
2023-09-12T16:58:48.046Z,165451.31
2023-09-12T17:01:52.465Z,165421.00
2023-09-12T17:04:56.480Z,165397.34
2023-09-12T17:08:00.549Z,165376.25
2023-09-12T17:11:04.648Z,165357.84
2023-09-12T17:14:08.776Z,165339.44
2023-09-12T17:17:12.830Z,165328.88
2023-09-12T17:20:16.838Z,165311.81
2023-09-12T17:23:21.227Z,165290.75
2023-09-12T17:26:25.612Z,165271.00
2023-09-12T17:29:30.413Z,165263.13
2023-09-12T17:32:34.442Z,165244.72
2023-09-12T17:35:38.572Z,165227.59
2023-09-12T17:38:43.539Z,165210.50
2023-09-12T17:41:47.644Z,165190.75
2023-09-12T17:44:51.703Z,165153.88
2023-09-12T17:47:56.349Z,165135.47
2023-09-12T17:51:00.003Z,165118.38
2023-09-12T17:54:04.089Z,165106.50
2023-09-12T17:57:08.895Z,165103.91
2023-09-12T18:00:13.324Z,165101.25
2023-09-12T18:03:17.201Z,165092.03
2023-09-12T18:06:22.094Z,165098.63
2023-09-12T18:09:26.502Z,165099.94
2023-09-12T18:12:31.579Z,165094.72
2023-09-12T18:15:35.719Z,165096.00
2023-09-12T18:18:39.807Z,165073.66
2023-09-12T18:21:43.842Z,165047.31
2023-09-12T18:24:48.272Z,165021.00
2023-09-12T18:27:52.441Z,164992.06
2023-09-12T18:30:56.912Z,164969.75
2023-09-12T18:34:01.081Z,164963.09
2023-09-12T18:37:06.165Z,164936.78
2023-09-12T18:40:10.835Z,164922.38
2023-09-12T18:43:17.033Z,164911.81
2023-09-12T18:46:22.048Z,164903.94
2023-09-12T18:49:26.502Z,164884.22
2023-09-12T18:52:40.366Z,164884.22
2023-09-12T18:55:52.935Z,164871.03
2023-09-12T18:58:56.924Z,164865.75
2023-09-12T19:02:00.978Z,164860.50
2023-09-12T19:05:05.799Z,164865.75
2023-09-12T19:08:10.919Z,164869.69
2023-09-12T19:11:17.060Z,164888.13
2023-09-12T19:14:21.136Z,164869.69
2023-09-12T19:17:25.542Z,164851.34
2023-09-12T19:20:29.809Z,164834.19
2023-09-12T19:23:34.266Z,164806.59
2023-09-12T19:26:38.471Z,164794.75
2023-09-12T19:29:50.657Z,164786.84
2023-09-12T19:32:58.536Z,164771.06
2023-09-12T19:36:02.668Z,164759.22
2023-09-12T19:39:06.952Z,164755.31
2023-09-12T19:42:11.221Z,164755.31
2023-09-12T19:45:15.407Z,164819.75
2023-09-12T19:48:19.797Z,164815.78
2023-09-12T19:51:23.945Z,164847.38
2023-09-12T19:54:28.475Z,164847.38
2023-09-12T19:57:32.289Z,164848.72
2023-09-12T20:00:36.409Z,164835.53
2023-09-12T20:03:41.082Z,164814.47
2023-09-12T20:06:45.631Z,164817.09
2023-09-12T20:09:49.863Z,164794.75
2023-09-12T20:12:53.927Z,164789.50
2023-09-12T20:15:58.191Z,164782.91
2023-09-12T20:19:06.480Z,164778.97
2023-09-12T20:22:11.703Z,164755.31
2023-09-12T20:25:15.872Z,164751.34
2023-09-12T20:28:20.991Z,164734.25
2023-09-12T20:31:24.713Z,164734.25
2023-09-12T20:34:31.903Z,164719.81
2023-09-12T20:37:36.002Z,164702.72
2023-09-12T20:40:40.308Z,164676.41
2023-09-12T20:43:45.026Z,164692.16
2023-09-12T20:46:49.644Z,164676.41
2023-09-12T20:49:57.510Z,164689.59
2023-09-12T20:53:07.700Z,164664.56
2023-09-12T20:56:14.418Z,164638.25
2023-09-12T20:59:18.342Z,164600.13
2023-09-12T21:02:22.544Z,164597.50
2023-09-12T21:05:28.058Z,164589.63
2023-09-12T21:08:32.646Z,164581.75
2023-09-12T21:11:36.892Z,164581.75
2023-09-12T21:14:41.037Z,164583.03
2023-09-12T21:17:45.516Z,164571.19
2023-09-12T21:20:49.421Z,164563.34
2023-09-12T21:23:53.315Z,164568.56
2023-09-12T21:26:57.459Z,164544.91
2023-09-12T21:30:04.119Z,164542.28
2023-09-12T21:33:08.072Z,164533.06
2023-09-12T21:36:12.274Z,164512.03
2023-09-12T21:39:16.772Z,164513.34
2023-09-12T21:42:21.129Z,164500.19
2023-09-12T21:45:25.350Z,164496.28
2023-09-12T21:48:29.383Z,164492.31
2023-09-12T21:51:33.681Z,164485.78
2023-09-12T21:54:38.271Z,164481.81
2023-09-12T21:57:42.603Z,164496.28
2023-09-12T22:00:46.682Z,164473.91
2023-09-12T22:03:50.853Z,164468.69
2023-09-12T22:06:55.313Z,164463.41
2023-09-12T22:10:01.634Z,164452.84
2023-09-12T22:13:06.842Z,164454.19
2023-09-12T22:16:11.335Z,164456.88
2023-09-12T22:19:15.282Z,164447.66
2023-09-12T22:22:19.482Z,164448.94
2023-09-12T22:25:23.689Z,164456.88
2023-09-12T22:28:27.647Z,164463.41
2023-09-12T22:31:32.795Z,164444.97
2023-09-12T22:34:38.189Z,164442.34
2023-09-12T22:37:42.509Z,164458.16
2023-09-12T22:40:46.812Z,164431.88
2023-09-12T22:43:51.065Z,164439.78
2023-09-12T22:46:55.604Z,164438.44
2023-09-12T22:50:00.158Z,164425.28
2023-09-12T22:53:05.284Z,164416.06
2023-09-12T22:56:09.223Z,164419.97
2023-09-12T22:59:14.431Z,164410.81
2023-09-12T23:02:18.513Z,164423.94
2023-09-12T23:05:22.872Z,164417.41
2023-09-12T23:08:27.072Z,164425.28
2023-09-12T23:11:31.353Z,164418.75
2023-09-12T23:14:35.543Z,164400.34
2023-09-12T23:17:39.611Z,164385.88
2023-09-12T23:20:46.218Z,164396.38
2023-09-12T23:23:49.986Z,164379.28
2023-09-12T23:26:53.902Z,164376.66
2023-09-12T23:29:58.919Z,164383.19
2023-09-12T23:33:04.142Z,164401.63
2023-09-12T23:36:10.479Z,164409.53
2023-09-12T23:39:16.087Z,164410.81
2023-09-12T23:42:21.099Z,164413.44
2023-09-12T23:45:25.091Z,164421.31
2023-09-12T23:48:29.134Z,164414.78
2023-09-12T23:51:33.392Z,164441.03
2023-09-12T23:54:37.448Z,164442.34
2023-09-12T23:57:41.984Z,164413.44
